sensor_id;sensor_type;location;lat;lon;timestamp;pressure;altitude;pressure_sealevel;temperature;humidity
70053;BME280;57398;52.032;4.376;2024-02-26T00:02:09;100327.44;;;5.16;100.00
70053;BME280;57398;52.032;4.376;2024-02-26T00:04:58;100319.72;;;5.16;100.00
70053;BME280;57398;52.032;4.376;2024-02-26T00:07:46;100331.22;;;5.20;100.00
70053;BME280;57398;52.032;4.376;2024-02-26T00:10:35;100337.75;;;5.23;100.00
70053;BME280;57398;52.032;4.376;2024-02-26T00:13:23;100339.13;;;5.12;100.00
70053;BME280;57398;52.032;4.376;2024-02-26T00:16:11;100338.34;;;5.18;100.00
70053;BME280;57398;52.032;4.376;2024-02-26T00:18:59;100342.31;;;5.21;100.00
70053;BME280;57398;52.032;4.376;2024-02-26T00:21:49;100339.72;;;5.21;100.00
70053;BME280;57398;52.032;4.376;2024-02-26T00:24:37;100344.28;;;5.25;100.00
70053;BME280;57398;52.032;4.376;2024-02-26T00:27:27;100330.41;;;5.13;100.00
70053;BME280;57398;52.032;4.376;2024-02-26T00:30:15;100339.91;;;5.19;100.00
70053;BME280;57398;52.032;4.376;2024-02-26T00:33:04;100347.69;;;5.33;100.00
70053;BME280;57398;52.032;4.376;2024-02-26T00:35:52;100345.09;;;5.33;100.00
70053;BME280;57398;52.032;4.376;2024-02-26T00:38:41;100344.47;;;5.24;100.00
70053;BME280;57398;52.032;4.376;2024-02-26T00:41:31;100351.41;;;5.23;100.00
70053;BME280;57398;52.032;4.376;2024-02-26T00:44:19;100354.59;;;5.25;100.00
70053;BME280;57398;52.032;4.376;2024-02-26T00:47:07;100349.44;;;5.25;100.00
70053;BME280;57398;52.032;4.376;2024-02-26T00:49:55;100350.44;;;5.24;100.00
70053;BME280;57398;52.032;4.376;2024-02-26T00:52:44;100348.84;;;5.23;100.00
70053;BME280;57398;52.032;4.376;2024-02-26T00:55:33;100357.56;;;5.22;100.00
70053;BME280;57398;52.032;4.376;2024-02-26T00:58:21;100359.34;;;5.22;100.00
70053;BME280;57398;52.032;4.376;2024-02-26T01:01:09;100358.72;;;5.20;100.00
70053;BME280;57398;52.032;4.376;2024-02-26T01:03:58;100350.81;;;5.15;100.00
70053;BME280;57398;52.032;4.376;2024-02-26T01:06:46;100356.16;;;5.13;100.00
70053;BME280;57398;52.032;4.376;2024-02-26T01:09:34;100355.34;;;5.13;100.00
70053;BME280;57398;52.032;4.376;2024-02-26T01:12:24;100357.91;;;5.13;100.00
70053;BME280;57398;52.032;4.376;2024-02-26T01:15:12;100355.16;;;5.14;100.00
70053;BME280;57398;52.032;4.376;2024-02-26T01:18:00;100363.06;;;5.13;100.00
70053;BME280;57398;52.032;4.376;2024-02-26T01:20:49;100370.00;;;5.12;100.00
70053;BME280;57398;52.032;4.376;2024-02-26T01:23:37;100366.03;;;5.10;100.00
70053;BME280;57398;52.032;4.376;2024-02-26T01:26:25;100356.13;;;5.07;100.00
70053;BME280;57398;52.032;4.376;2024-02-26T01:29:14;100356.94;;;5.07;100.00
70053;BME280;57398;52.032;4.376;2024-02-26T01:32:03;100351.34;;;5.03;100.00
70053;BME280;57398;52.032;4.376;2024-02-26T01:34:52;100341.28;;;5.02;100.00
70053;BME280;57398;52.032;4.376;2024-02-26T01:37:40;100344.03;;;5.00;100.00
70053;BME280;57398;52.032;4.376;2024-02-26T01:40:28;100339.06;;;4.99;100.00
70053;BME280;57398;52.032;4.376;2024-02-26T01:43:16;100337.09;;;5.01;100.00
70053;BME280;57398;52.032;4.376;2024-02-26T01:46:08;100349.56;;;4.97;100.00
70053;BME280;57398;52.032;4.376;2024-02-26T01:49:01;100348.19;;;4.95;100.00
70053;BME280;57398;52.032;4.376;2024-02-26T01:51:50;100361.25;;;4.93;100.00
70053;BME280;57398;52.032;4.376;2024-02-26T01:54:39;100352.53;;;4.94;100.00
70053;BME280;57398;52.032;4.376;2024-02-26T01:57:28;100368.34;;;4.91;100.00
70053;BME280;57398;52.032;4.376;2024-02-26T02:00:17;100364.22;;;4.90;100.00
70053;BME280;57398;52.032;4.376;2024-02-26T02:03:07;100364.00;;;4.92;100.00
70053;BME280;57398;52.032;4.376;2024-02-26T02:05:56;100374.28;;;4.92;100.00
70053;BME280;57398;52.032;4.376;2024-02-26T02:08:44;100383.00;;;4.91;100.00
70053;BME280;57398;52.032;4.376;2024-02-26T02:11:33;100386.38;;;4.91;100.00
70053;BME280;57398;52.032;4.376;2024-02-26T02:14:21;100386.97;;;4.93;100.00
70053;BME280;57398;52.032;4.376;2024-02-26T02:17:09;100389.94;;;4.90;100.00
70053;BME280;57398;52.032;4.376;2024-02-26T02:19:59;100380.81;;;4.94;100.00
70053;BME280;57398;52.032;4.376;2024-02-26T02:22:48;100385.00;;;4.95;100.00
70053;BME280;57398;52.032;4.376;2024-02-26T02:25:36;100396.09;;;4.96;100.00
70053;BME280;57398;52.032;4.376;2024-02-26T02:28:26;100394.13;;;4.98;100.00
70053;BME280;57398;52.032;4.376;2024-02-26T02:31:15;100400.06;;;4.98;100.00
70053;BME280;57398;52.032;4.376;2024-02-26T02:34:03;100403.22;;;5.00;100.00
70053;BME280;57398;52.032;4.376;2024-02-26T02:36:52;100402.81;;;4.97;100.00
70053;BME280;57398;52.032;4.376;2024-02-26T02:39:41;100413.53;;;5.00;100.00
70053;BME280;57398;52.032;4.376;2024-02-26T02:42:30;100406.81;;;4.99;100.00
70053;BME280;57398;52.032;4.376;2024-02-26T02:45:18;100408.00;;;5.03;100.00
70053;BME280;57398;52.032;4.376;2024-02-26T02:48:06;100411.38;;;5.04;100.00
70053;BME280;57398;52.032;4.376;2024-02-26T02:50:55;100410.38;;;5.05;100.00
70053;BME280;57398;52.032;4.376;2024-02-26T02:53:43;100417.31;;;5.04;100.00
70053;BME280;57398;52.032;4.376;2024-02-26T02:56:33;100428.00;;;5.08;100.00
70053;BME280;57398;52.032;4.376;2024-02-26T02:59:21;100420.28;;;5.08;100.00
70053;BME280;57398;52.032;4.376;2024-02-26T03:02:09;100424.25;;;5.04;100.00
70053;BME280;57398;52.032;4.376;2024-02-26T03:04:57;100422.47;;;5.04;100.00
70053;BME280;57398;52.032;4.376;2024-02-26T03:07:45;100430.19;;;5.04;100.00
70053;BME280;57398;52.032;4.376;2024-02-26T03:10:33;100441.28;;;5.05;100.00
70053;BME280;57398;52.032;4.376;2024-02-26T03:13:22;100444.03;;;5.03;100.00
70053;BME280;57398;52.032;4.376;2024-02-26T03:16:11;100450.19;;;5.02;100.00
70053;BME280;57398;52.032;4.376;2024-02-26T03:18:59;100447.78;;;5.01;100.00
70053;BME280;57398;52.032;4.376;2024-02-26T03:21:47;100449.19;;;5.03;100.00
70053;BME280;57398;52.032;4.376;2024-02-26T03:24:35;100456.13;;;5.03;100.00
70053;BME280;57398;52.032;4.376;2024-02-26T03:27:23;100455.91;;;4.98;100.00
70053;BME280;57398;52.032;4.376;2024-02-26T03:30:13;100467.97;;;4.97;100.00
70053;BME280;57398;52.032;4.376;2024-02-26T03:33:02;100452.53;;;4.97;100.00
70053;BME280;57398;52.032;4.376;2024-02-26T03:35:50;100464.22;;;5.00;100.00
70053;BME280;57398;52.032;4.376;2024-02-26T03:38:38;100458.28;;;4.99;100.00
70053;BME280;57398;52.032;4.376;2024-02-26T03:41:27;100455.72;;;4.99;100.00
70053;BME280;57398;52.032;4.376;2024-02-26T03:44:15;100477.47;;;4.97;100.00
70053;BME280;57398;52.032;4.376;2024-02-26T03:47:04;100460.28;;;5.04;100.00
70053;BME280;57398;52.032;4.376;2024-02-26T03:49:52;100454.72;;;5.00;100.00
70053;BME280;57398;52.032;4.376;2024-02-26T03:52:40;100467.78;;;4.99;100.00
70053;BME280;57398;52.032;4.376;2024-02-26T03:55:29;100466.81;;;5.00;100.00
70053;BME280;57398;52.032;4.376;2024-02-26T03:58:17;100473.34;;;5.02;100.00
70053;BME280;57398;52.032;4.376;2024-02-26T04:01:07;100476.09;;;5.01;100.00
70053;BME280;57398;52.032;4.376;2024-02-26T04:03:56;100481.25;;;5.01;100.00
70053;BME280;57398;52.032;4.376;2024-02-26T04:06:45;100496.91;;;4.99;100.00
70053;BME280;57398;52.032;4.376;2024-02-26T04:09:33;100489.34;;;4.98;100.00
70053;BME280;57398;52.032;4.376;2024-02-26T04:12:21;100487.53;;;4.92;100.00
70053;BME280;57398;52.032;4.376;2024-02-26T04:15:10;100487.34;;;4.93;100.00
70053;BME280;57398;52.032;4.376;2024-02-26T04:17:58;100490.91;;;4.92;100.00
70053;BME280;57398;52.032;4.376;2024-02-26T04:20:48;100491.09;;;4.91;100.00
70053;BME280;57398;52.032;4.376;2024-02-26T04:23:38;100493.84;;;4.89;100.00
70053;BME280;57398;52.032;4.376;2024-02-26T04:26:26;100497.59;;;4.87;100.00
70053;BME280;57398;52.032;4.376;2024-02-26T04:29:14;100485.34;;;4.89;100.00
70053;BME280;57398;52.032;4.376;2024-02-26T04:32:03;100494.66;;;4.90;100.00
70053;BME280;57398;52.032;4.376;2024-02-26T04:34:52;100506.53;;;4.91;100.00
70053;BME280;57398;52.032;4.376;2024-02-26T04:37:41;100502.38;;;4.90;100.00
70053;BME280;57398;52.032;4.376;2024-02-26T04:40:29;100507.34;;;4.91;100.00
70053;BME280;57398;52.032;4.376;2024-02-26T04:43:17;100518.63;;;4.90;100.00
70053;BME280;57398;52.032;4.376;2024-02-26T04:46:06;100515.22;;;4.90;100.00
70053;BME280;57398;52.032;4.376;2024-02-26T04:48:54;100512.88;;;4.88;100.00
70053;BME280;57398;52.032;4.376;2024-02-26T04:51:44;100517.19;;;4.88;100.00
70053;BME280;57398;52.032;4.376;2024-02-26T04:54:35;100517.59;;;4.85;100.00
70053;BME280;57398;52.032;4.376;2024-02-26T04:57:23;100515.56;;;4.80;100.00
70053;BME280;57398;52.032;4.376;2024-02-26T05:00:14;100521.72;;;4.79;100.00
70053;BME280;57398;52.032;4.376;2024-02-26T05:03:02;100519.31;;;4.77;100.00
70053;BME280;57398;52.032;4.376;2024-02-26T05:05:50;100528.00;;;4.76;100.00
70053;BME280;57398;52.032;4.376;2024-02-26T05:08:39;100522.88;;;4.76;100.00
70053;BME280;57398;52.032;4.376;2024-02-26T05:11:28;100532.56;;;4.74;100.00
70053;BME280;57398;52.032;4.376;2024-02-26T05:14:16;100528.56;;;4.72;100.00
70053;BME280;57398;52.032;4.376;2024-02-26T05:17:04;100521.84;;;4.71;100.00
70053;BME280;57398;52.032;4.376;2024-02-26T05:19:52;100535.72;;;4.70;100.00
70053;BME280;57398;52.032;4.376;2024-02-26T05:22:41;100541.44;;;4.72;100.00
70053;BME280;57398;52.032;4.376;2024-02-26T05:25:29;100529.94;;;4.68;100.00
70053;BME280;57398;52.032;4.376;2024-02-26T05:28:18;100536.50;;;4.70;100.00
70053;BME280;57398;52.032;4.376;2024-02-26T05:31:07;100541.63;;;4.70;100.00
70053;BME280;57398;52.032;4.376;2024-02-26T05:33:55;100545.38;;;4.68;100.00
70053;BME280;57398;52.032;4.376;2024-02-26T05:36:44;100548.56;;;4.70;100.00
70053;BME280;57398;52.032;4.376;2024-02-26T05:39:31;100554.69;;;4.69;100.00
70053;BME280;57398;52.032;4.376;2024-02-26T05:42:20;100551.31;;;4.68;100.00
70053;BME280;57398;52.032;4.376;2024-02-26T05:45:09;100557.44;;;4.67;100.00
70053;BME280;57398;52.032;4.376;2024-02-26T05:47:58;100555.84;;;4.66;100.00
70053;BME280;57398;52.032;4.376;2024-02-26T05:50:46;100551.50;;;4.67;100.00
70053;BME280;57398;52.032;4.376;2024-02-26T05:53:34;100558.88;;;4.70;100.00
70053;BME280;57398;52.032;4.376;2024-02-26T05:56:22;100565.75;;;4.69;100.00
70053;BME280;57398;52.032;4.376;2024-02-26T05:59:10;100574.31;;;4.70;100.00
70053;BME280;57398;52.032;4.376;2024-02-26T06:02:00;100576.66;;;4.71;100.00
70053;BME280;57398;52.032;4.376;2024-02-26T06:04:48;100577.47;;;4.72;100.00
70053;BME280;57398;52.032;4.376;2024-02-26T06:07:36;100586.34;;;4.69;100.00
70053;BME280;57398;52.032;4.376;2024-02-26T06:10:24;100597.47;;;4.70;100.00
70053;BME280;57398;52.032;4.376;2024-02-26T06:13:12;100596.63;;;4.69;100.00
70053;BME280;57398;52.032;4.376;2024-02-26T06:16:01;100599.41;;;4.68;100.00
70053;BME280;57398;52.032;4.376;2024-02-26T06:18:50;100605.34;;;4.68;100.00
70053;BME280;57398;52.032;4.376;2024-02-26T06:21:38;100611.47;;;4.67;100.00
70053;BME280;57398;52.032;4.376;2024-02-26T06:24:26;100606.13;;;4.69;100.00
70053;BME280;57398;52.032;4.376;2024-02-26T06:27:15;100613.69;;;4.70;100.00
70053;BME280;57398;52.032;4.376;2024-02-26T06:30:04;100616.25;;;4.70;100.00
70053;BME280;57398;52.032;4.376;2024-02-26T06:32:52;100620.41;;;4.71;100.00
70053;BME280;57398;52.032;4.376;2024-02-26T06:35:42;100626.00;;;4.75;100.00
70053;BME280;57398;52.032;4.376;2024-02-26T06:38:30;100630.53;;;4.73;100.00
70053;BME280;57398;52.032;4.376;2024-02-26T06:41:19;100631.94;;;4.75;100.00
70053;BME280;57398;52.032;4.376;2024-02-26T06:44:07;100634.50;;;4.75;100.00
70053;BME280;57398;52.032;4.376;2024-02-26T06:46:55;100638.84;;;4.75;100.00
70053;BME280;57398;52.032;4.376;2024-02-26T06:49:43;100641.59;;;4.73;100.00
70053;BME280;57398;52.032;4.376;2024-02-26T06:52:32;100645.78;;;4.74;100.00
70053;BME280;57398;52.032;4.376;2024-02-26T06:55:20;100663.19;;;4.72;100.00
70053;BME280;57398;52.032;4.376;2024-02-26T06:58:09;100657.59;;;4.69;100.00
70053;BME280;57398;52.032;4.376;2024-02-26T07:00:57;100661.16;;;4.68;100.00
70053;BME280;57398;52.032;4.376;2024-02-26T07:03:45;100657.78;;;4.67;100.00
70053;BME280;57398;52.032;4.376;2024-02-26T07:06:33;100665.69;;;4.66;100.00
70053;BME280;57398;52.032;4.376;2024-02-26T07:09:23;100671.00;;;4.64;100.00
70053;BME280;57398;52.032;4.376;2024-02-26T07:12:12;100677.94;;;4.64;100.00
70053;BME280;57398;52.032;4.376;2024-02-26T07:15:00;100697.72;;;4.63;100.00
70053;BME280;57398;52.032;4.376;2024-02-26T07:17:49;100699.69;;;4.61;100.00
70053;BME280;57398;52.032;4.376;2024-02-26T07:20:37;100705.78;;;4.60;100.00
70053;BME280;57398;52.032;4.376;2024-02-26T07:23:25;100710.94;;;4.60;100.00
70053;BME280;57398;52.032;4.376;2024-02-26T07:26:15;100696.88;;;4.56;100.00
70053;BME280;57398;52.032;4.376;2024-02-26T07:29:05;100701.81;;;4.57;100.00
70053;BME280;57398;52.032;4.376;2024-02-26T07:31:53;100714.50;;;4.59;100.00
70053;BME280;57398;52.032;4.376;2024-02-26T07:34:41;100716.63;;;4.55;100.00
70053;BME280;57398;52.032;4.376;2024-02-26T07:37:31;100724.78;;;4.59;100.00
70053;BME280;57398;52.032;4.376;2024-02-26T07:40:19;100716.09;;;4.60;100.00
70053;BME280;57398;52.032;4.376;2024-02-26T07:43:09;100729.56;;;4.62;100.00
70053;BME280;57398;52.032;4.376;2024-02-26T07:45:57;100740.06;;;4.60;100.00
70053;BME280;57398;52.032;4.376;2024-02-26T07:48:45;100735.09;;;4.59;100.00
70053;BME280;57398;52.032;4.376;2024-02-26T07:51:33;100738.28;;;4.61;100.00
70053;BME280;57398;52.032;4.376;2024-02-26T07:54:22;100744.03;;;4.63;100.00
70053;BME280;57398;52.032;4.376;2024-02-26T07:57:10;100755.66;;;4.59;100.00
70053;BME280;57398;52.032;4.376;2024-02-26T08:00:00;100764.63;;;4.63;100.00
70053;BME280;57398;52.032;4.376;2024-02-26T08:02:48;100771.53;;;4.62;100.00
70053;BME280;57398;52.032;4.376;2024-02-26T08:05:36;100773.13;;;4.64;100.00
70053;BME280;57398;52.032;4.376;2024-02-26T08:08:26;100777.47;;;4.63;100.00
70053;BME280;57398;52.032;4.376;2024-02-26T08:11:14;100773.91;;;4.64;100.00
70053;BME280;57398;52.032;4.376;2024-02-26T08:14:03;100785.38;;;4.61;100.00
70053;BME280;57398;52.032;4.376;2024-02-26T08:16:52;100784.03;;;4.66;100.00
70053;BME280;57398;52.032;4.376;2024-02-26T08:19:41;100789.19;;;4.66;100.00
70053;BME280;57398;52.032;4.376;2024-02-26T08:22:29;100789.81;;;4.68;100.00
70053;BME280;57398;52.032;4.376;2024-02-26T08:25:17;100794.13;;;4.67;100.00
70053;BME280;57398;52.032;4.376;2024-02-26T08:28:05;100807.63;;;4.69;100.00
70053;BME280;57398;52.032;4.376;2024-02-26T08:30:53;100813.38;;;4.71;100.00
70053;BME280;57398;52.032;4.376;2024-02-26T08:33:43;100803.09;;;4.71;100.00
70053;BME280;57398;52.032;4.376;2024-02-26T08:36:33;100814.53;;;4.69;100.00
70053;BME280;57398;52.032;4.376;2024-02-26T08:39:21;100825.84;;;4.68;100.00
70053;BME280;57398;52.032;4.376;2024-02-26T08:42:09;100819.69;;;4.69;100.00
70053;BME280;57398;52.032;4.376;2024-02-26T08:44:57;100825.47;;;4.71;100.00
70053;BME280;57398;52.032;4.376;2024-02-26T08:47:47;100821.09;;;4.71;100.00
70053;BME280;57398;52.032;4.376;2024-02-26T08:50:36;100831.84;;;4.75;100.00
70053;BME280;57398;52.032;4.376;2024-02-26T08:53:24;100847.72;;;4.78;100.00
70053;BME280;57398;52.032;4.376;2024-02-26T08:56:27;100840.63;;;4.80;100.00
70053;BME280;57398;52.032;4.376;2024-02-26T08:59:15;100850.38;;;4.85;100.00
70053;BME280;57398;52.032;4.376;2024-02-26T09:02:09;100856.59;;;4.91;100.00
70053;BME280;57398;52.032;4.376;2024-02-26T09:04:57;100856.94;;;4.88;100.00
70053;BME280;57398;52.032;4.376;2024-02-26T09:07:46;100873.19;;;4.88;100.00
70053;BME280;57398;52.032;4.376;2024-02-26T09:10:35;100874.59;;;4.91;100.00
70053;BME280;57398;52.032;4.376;2024-02-26T09:13:23;100883.13;;;4.91;100.00
70053;BME280;57398;52.032;4.376;2024-02-26T09:16:12;100875.22;;;4.93;100.00
70053;BME280;57398;52.032;4.376;2024-02-26T09:19:01;100887.56;;;4.97;100.00
70053;BME280;57398;52.032;4.376;2024-02-26T09:21:50;100891.47;;;4.93;100.00
70053;BME280;57398;52.032;4.376;2024-02-26T09:24:40;100893.34;;;4.99;100.00
70053;BME280;57398;52.032;4.376;2024-02-26T09:27:28;100899.69;;;5.03;100.00
70053;BME280;57398;52.032;4.376;2024-02-26T09:30:17;100893.38;;;5.06;100.00
70053;BME280;57398;52.032;4.376;2024-02-26T09:33:06;100898.44;;;5.14;100.00
70053;BME280;57398;52.032;4.376;2024-02-26T09:35:54;100912.66;;;5.10;100.00
70053;BME280;57398;52.032;4.376;2024-02-26T09:38:42;100917.72;;;5.18;100.00
70053;BME280;57398;52.032;4.376;2024-02-26T09:41:44;100914.06;;;5.13;100.00
70053;BME280;57398;52.032;4.376;2024-02-26T09:44:34;100929.34;;;5.14;100.00
70053;BME280;57398;52.032;4.376;2024-02-26T09:47:26;100924.19;;;5.14;100.00
70053;BME280;57398;52.032;4.376;2024-02-26T09:50:17;100937.84;;;5.15;100.00
70053;BME280;57398;52.032;4.376;2024-02-26T09:53:10;100940.00;;;5.11;100.00
70053;BME280;57398;52.032;4.376;2024-02-26T09:55:59;100946.03;;;5.18;100.00
70053;BME280;57398;52.032;4.376;2024-02-26T09:58:49;100945.91;;;5.27;100.00
70053;BME280;57398;52.032;4.376;2024-02-26T10:01:41;100945.25;;;5.18;100.00
70053;BME280;57398;52.032;4.376;2024-02-26T10:04:31;100951.19;;;5.18;100.00
70053;BME280;57398;52.032;4.376;2024-02-26T10:07:20;100955.97;;;5.21;100.00
70053;BME280;57398;52.032;4.376;2024-02-26T10:10:09;100946.56;;;5.14;100.00
70053;BME280;57398;52.032;4.376;2024-02-26T10:12:59;100964.31;;;5.23;100.00
70053;BME280;57398;52.032;4.376;2024-02-26T10:15:49;100969.09;;;5.27;100.00
70053;BME280;57398;52.032;4.376;2024-02-26T10:18:47;100973.28;;;5.28;100.00
70053;BME280;57398;52.032;4.376;2024-02-26T10:21:38;100964.78;;;5.27;100.00
70053;BME280;57398;52.032;4.376;2024-02-26T10:24:26;100976.75;;;5.35;100.00
70053;BME280;57398;52.032;4.376;2024-02-26T10:27:15;100983.84;;;5.33;100.00
70053;BME280;57398;52.032;4.376;2024-02-26T10:30:04;100989.53;;;5.43;100.00
70053;BME280;57398;52.032;4.376;2024-02-26T10:32:56;100992.03;;;5.36;100.00
70053;BME280;57398;52.032;4.376;2024-02-26T10:35:45;100998.69;;;5.45;100.00
70053;BME280;57398;52.032;4.376;2024-02-26T10:38:34;101003.38;;;5.57;100.00
70053;BME280;57398;52.032;4.376;2024-02-26T10:41:22;101014.22;;;5.52;100.00
70053;BME280;57398;52.032;4.376;2024-02-26T10:44:11;101023.44;;;5.46;100.00
70053;BME280;57398;52.032;4.376;2024-02-26T10:47:05;101017.75;;;5.51;100.00
70053;BME280;57398;52.032;4.376;2024-02-26T10:49:57;101021.75;;;5.54;100.00
70053;BME280;57398;52.032;4.376;2024-02-26T10:52:46;101038.28;;;5.59;100.00
70053;BME280;57398;52.032;4.376;2024-02-26T10:55:35;101036.88;;;5.57;100.00
70053;BME280;57398;52.032;4.376;2024-02-26T10:58:24;101048.75;;;5.58;100.00
70053;BME280;57398;52.032;4.376;2024-02-26T11:01:13;101060.84;;;5.57;100.00
70053;BME280;57398;52.032;4.376;2024-02-26T11:04:01;101062.34;;;5.52;100.00
70053;BME280;57398;52.032;4.376;2024-02-26T11:06:54;101067.78;;;5.42;100.00
70053;BME280;57398;52.032;4.376;2024-02-26T11:09:45;101060.69;;;5.44;100.00
70053;BME280;57398;52.032;4.376;2024-02-26T11:12:41;101071.44;;;5.48;100.00
70053;BME280;57398;52.032;4.376;2024-02-26T11:15:29;101078.25;;;5.40;100.00
70053;BME280;57398;52.032;4.376;2024-02-26T11:18:22;101076.06;;;5.52;100.00
70053;BME280;57398;52.032;4.376;2024-02-26T11:21:13;101080.28;;;5.45;100.00
70053;BME280;57398;52.032;4.376;2024-02-26T11:24:05;101080.03;;;5.40;100.00
70053;BME280;57398;52.032;4.376;2024-02-26T11:26:55;101075.09;;;5.38;100.00
70053;BME280;57398;52.032;4.376;2024-02-26T11:29:48;101077.38;;;5.33;100.00
70053;BME280;57398;52.032;4.376;2024-02-26T11:32:38;101083.69;;;5.31;100.00
70053;BME280;57398;52.032;4.376;2024-02-26T11:35:28;101088.63;;;5.17;100.00
70053;BME280;57398;52.032;4.376;2024-02-26T11:38:17;101085.44;;;5.15;100.00
70053;BME280;57398;52.032;4.376;2024-02-26T11:41:09;101087.03;;;5.16;100.00
70053;BME280;57398;52.032;4.376;2024-02-26T11:43:58;101079.06;;;5.11;100.00
70053;BME280;57398;52.032;4.376;2024-02-26T11:46:47;101073.00;;;5.04;100.00
70053;BME280;57398;52.032;4.376;2024-02-26T11:49:36;101083.38;;;5.11;100.00
70053;BME280;57398;52.032;4.376;2024-02-26T11:52:24;101084.38;;;5.10;100.00
70053;BME280;57398;52.032;4.376;2024-02-26T11:55:31;101083.06;;;5.14;100.00
70053;BME280;57398;52.032;4.376;2024-02-26T11:58:22;101075.31;;;5.14;100.00
70053;BME280;57398;52.032;4.376;2024-02-26T12:01:40;101077.00;;;5.21;100.00
70053;BME280;57398;52.032;4.376;2024-02-26T12:04:30;101090.88;;;5.20;100.00
70053;BME280;57398;52.032;4.376;2024-02-26T12:07:19;101090.06;;;5.20;100.00
70053;BME280;57398;52.032;4.376;2024-02-26T12:10:15;101088.09;;;5.22;100.00
70053;BME280;57398;52.032;4.376;2024-02-26T12:13:07;101084.47;;;5.16;100.00
70053;BME280;57398;52.032;4.376;2024-02-26T12:15:57;101097.63;;;5.21;100.00
70053;BME280;57398;52.032;4.376;2024-02-26T12:18:47;101109.16;;;5.25;100.00
70053;BME280;57398;52.032;4.376;2024-02-26T12:21:36;101113.09;;;5.36;100.00
70053;BME280;57398;52.032;4.376;2024-02-26T12:24:24;101117.63;;;5.34;100.00
70053;BME280;57398;52.032;4.376;2024-02-26T12:27:12;101117.72;;;5.41;100.00
70053;BME280;57398;52.032;4.376;2024-02-26T12:30:02;101125.63;;;5.39;100.00
70053;BME280;57398;52.032;4.376;2024-02-26T12:32:53;101136.44;;;5.35;100.00
70053;BME280;57398;52.032;4.376;2024-02-26T12:35:44;101136.38;;;5.43;100.00
70053;BME280;57398;52.032;4.376;2024-02-26T12:38:35;101141.34;;;5.44;100.00
70053;BME280;57398;52.032;4.376;2024-02-26T12:41:24;101134.75;;;5.42;100.00
70053;BME280;57398;52.032;4.376;2024-02-26T12:44:12;101153.06;;;5.47;100.00
70053;BME280;57398;52.032;4.376;2024-02-26T12:47:01;101160.16;;;5.45;100.00
70053;BME280;57398;52.032;4.376;2024-02-26T12:49:51;101161.34;;;5.57;100.00
70053;BME280;57398;52.032;4.376;2024-02-26T12:52:42;101163.66;;;5.52;100.00
70053;BME280;57398;52.032;4.376;2024-02-26T12:55:31;101166.66;;;5.56;100.00
70053;BME280;57398;52.032;4.376;2024-02-26T12:58:21;101170.25;;;5.55;100.00
70053;BME280;57398;52.032;4.376;2024-02-26T13:01:14;101195.47;;;5.59;100.00
70053;BME280;57398;52.032;4.376;2024-02-26T13:04:03;101194.50;;;5.60;100.00
70053;BME280;57398;52.032;4.376;2024-02-26T13:06:55;101199.91;;;5.65;100.00
70053;BME280;57398;52.032;4.376;2024-02-26T13:09:47;101196.47;;;5.73;100.00
70053;BME280;57398;52.032;4.376;2024-02-26T13:12:37;101213.50;;;5.74;100.00
70053;BME280;57398;52.032;4.376;2024-02-26T13:15:25;101200.00;;;5.72;100.00
70053;BME280;57398;52.032;4.376;2024-02-26T13:18:14;101205.50;;;5.84;100.00
70053;BME280;57398;52.032;4.376;2024-02-26T13:21:07;101206.09;;;5.94;100.00
70053;BME280;57398;52.032;4.376;2024-02-26T13:23:58;101210.44;;;5.94;100.00
70053;BME280;57398;52.032;4.376;2024-02-26T13:26:46;101209.09;;;5.98;100.00
70053;BME280;57398;52.032;4.376;2024-02-26T13:29:34;101226.09;;;6.07;100.00
70053;BME280;57398;52.032;4.376;2024-02-26T13:32:22;101224.59;;;6.13;100.00
70053;BME280;57398;52.032;4.376;2024-02-26T13:35:18;101243.78;;;6.10;100.00
70053;BME280;57398;52.032;4.376;2024-02-26T13:38:06;101236.78;;;6.19;100.00
70053;BME280;57398;52.032;4.376;2024-02-26T13:40:55;101242.09;;;6.17;100.00
70053;BME280;57398;52.032;4.376;2024-02-26T13:43:44;101242.72;;;6.19;100.00
70053;BME280;57398;52.032;4.376;2024-02-26T13:46:32;101258.38;;;6.18;100.00
70053;BME280;57398;52.032;4.376;2024-02-26T13:49:20;101250.28;;;6.21;100.00
70053;BME280;57398;52.032;4.376;2024-02-26T13:52:08;101253.84;;;6.20;100.00
70053;BME280;57398;52.032;4.376;2024-02-26T13:54:56;101257.03;;;6.22;100.00
70053;BME280;57398;52.032;4.376;2024-02-26T13:57:46;101262.56;;;6.19;100.00
70053;BME280;57398;52.032;4.376;2024-02-26T14:00:34;101262.09;;;6.15;100.00
70053;BME280;57398;52.032;4.376;2024-02-26T14:03:23;101265.75;;;6.06;100.00
70053;BME280;57398;52.032;4.376;2024-02-26T14:06:11;101258.28;;;5.96;100.00
70053;BME280;57398;52.032;4.376;2024-02-26T14:08:59;101260.44;;;6.07;100.00
70053;BME280;57398;52.032;4.376;2024-02-26T14:11:47;101274.91;;;6.08;100.00
70053;BME280;57398;52.032;4.376;2024-02-26T14:14:37;101271.28;;;6.03;100.00
70053;BME280;57398;52.032;4.376;2024-02-26T14:17:27;101273.22;;;6.01;100.00
70053;BME280;57398;52.032;4.376;2024-02-26T14:20:15;101287.19;;;6.06;100.00
70053;BME280;57398;52.032;4.376;2024-02-26T14:23:04;101276.59;;;6.01;100.00
70053;BME280;57398;52.032;4.376;2024-02-26T14:25:52;101286.22;;;6.07;100.00
70053;BME280;57398;52.032;4.376;2024-02-26T14:28:40;101294.31;;;6.19;100.00
70053;BME280;57398;52.032;4.376;2024-02-26T14:31:29;101306.66;;;6.09;100.00
70053;BME280;57398;52.032;4.376;2024-02-26T14:34:17;101323.28;;;6.06;100.00
70053;BME280;57398;52.032;4.376;2024-02-26T14:37:08;101348.03;;;5.93;100.00
70053;BME280;57398;52.032;4.376;2024-02-26T14:39:56;101340.28;;;6.01;100.00
70053;BME280;57398;52.032;4.376;2024-02-26T14:42:44;101341.25;;;6.00;100.00
70053;BME280;57398;52.032;4.376;2024-02-26T14:45:32;101346.41;;;6.00;100.00